sensor_id;sensor_type;location;lat;lon;timestamp;pressure;altitude;pressure_sealevel;temperature;humidity
11987;BME280;6053;51.382;6.768;2023-04-15T00:01:15;100388.31;;;14.09;65.52
11987;BME280;6053;51.382;6.768;2023-04-15T00:03:45;100381.88;;;14.41;62.88
11987;BME280;6053;51.382;6.768;2023-04-15T00:06:14;100378.63;;;14.49;64.50
11987;BME280;6053;51.382;6.768;2023-04-15T00:08:43;100377.25;;;14.52;63.08
11987;BME280;6053;51.382;6.768;2023-04-15T00:11:12;100381.56;;;14.32;61.74
11987;BME280;6053;51.382;6.768;2023-04-15T00:13:41;100386.34;;;14.42;56.78
11987;BME280;6053;51.382;6.768;2023-04-15T00:16:09;100381.56;;;14.37;59.22
11987;BME280;6053;51.382;6.768;2023-04-15T00:18:38;100388.31;;;14.47;63.68
11987;BME280;6053;51.382;6.768;2023-04-15T00:21:07;100379.09;;;14.04;60.40
11987;BME280;6053;51.382;6.768;2023-04-15T00:23:35;100379.94;;;14.04;63.35
11987;BME280;6053;51.382;6.768;2023-04-15T00:26:04;100385.69;;;14.30;64.63
11987;BME280;6053;51.382;6.768;2023-04-15T00:28:33;100379.63;;;14.33;64.14
11987;BME280;6053;51.382;6.768;2023-04-15T00:31:01;100385.56;;;14.14;61.78
11987;BME280;6053;51.382;6.768;2023-04-15T00:33:30;100375.53;;;14.46;62.22
11987;BME280;6053;51.382;6.768;2023-04-15T00:35:58;100377.84;;;14.54;64.55
11987;BME280;6053;51.382;6.768;2023-04-15T00:38:27;100384.28;;;14.65;63.74
11987;BME280;6053;51.382;6.768;2023-04-15T00:40:55;100376.47;;;14.56;59.30
11987;BME280;6053;51.382;6.768;2023-04-15T00:43:24;100382.09;;;14.34;62.81
11987;BME280;6053;51.382;6.768;2023-04-15T00:45:56;100383.34;;;14.49;60.53
11987;BME280;6053;51.382;6.768;2023-04-15T00:48:26;100382.16;;;14.39;64.27
11987;BME280;6053;51.382;6.768;2023-04-15T00:50:55;100384.41;;;14.43;63.52
11987;BME280;6053;51.382;6.768;2023-04-15T00:53:23;100386.81;;;14.34;64.14
11987;BME280;6053;51.382;6.768;2023-04-15T00:55:52;100390.09;;;14.26;62.01
11987;BME280;6053;51.382;6.768;2023-04-15T00:58:21;100385.94;;;14.28;64.03
11987;BME280;6053;51.382;6.768;2023-04-15T01:00:50;100377.66;;;14.33;65.16
11987;BME280;6053;51.382;6.768;2023-04-15T01:03:21;100379.34;;;14.34;65.00
11987;BME280;6053;51.382;6.768;2023-04-15T01:05:50;100377.38;;;14.30;64.74
11987;BME280;6053;51.382;6.768;2023-04-15T01:08:26;100377.66;;;14.33;65.11
11987;BME280;6053;51.382;6.768;2023-04-15T01:10:56;100377.66;;;14.33;65.10
11987;BME280;6053;51.382;6.768;2023-04-15T01:13:25;100377.38;;;14.30;65.08
11987;BME280;6053;51.382;6.768;2023-04-15T01:15:56;100374.00;;;14.28;65.22
11987;BME280;6053;51.382;6.768;2023-04-15T01:18:26;100371.84;;;14.35;64.62
11987;BME280;6053;51.382;6.768;2023-04-15T01:20:54;100385.94;;;14.28;65.08
11987;BME280;6053;51.382;6.768;2023-04-15T01:23:23;100376.25;;;14.31;65.14
11987;BME280;6053;51.382;6.768;2023-04-15T01:25:54;100381.72;;;14.21;64.84
11987;BME280;6053;51.382;6.768;2023-04-15T01:28:23;100383.63;;;14.15;65.50
11987;BME280;6053;51.382;6.768;2023-04-15T01:31:05;100383.63;;;14.15;65.86
11987;BME280;6053;51.382;6.768;2023-04-15T01:33:34;100375.63;;;14.19;65.59
11987;BME280;6053;51.382;6.768;2023-04-15T01:36:04;100382.75;;;14.09;63.00
11987;BME280;6053;51.382;6.768;2023-04-15T01:38:33;100379.38;;;14.02;63.69
11987;BME280;6053;51.382;6.768;2023-04-15T01:41:03;100377.22;;;14.09;66.09
11987;BME280;6053;51.382;6.768;2023-04-15T01:43:33;100378.34;;;14.13;65.46
11987;BME280;6053;51.382;6.768;2023-04-15T01:46:03;100383.59;;;14.10;65.57
11987;BME280;6053;51.382;6.768;2023-04-15T01:48:32;100381.41;;;14.12;65.41
11987;BME280;6053;51.382;6.768;2023-04-15T01:51:00;100378.31;;;14.08;65.74
11987;BME280;6053;51.382;6.768;2023-04-15T01:53:29;100384.94;;;14.07;65.62
11987;BME280;6053;51.382;6.768;2023-04-15T01:55:57;100381.63;;;14.05;65.92
11987;BME280;6053;51.382;6.768;2023-04-15T01:58:27;100381.63;;;14.05;65.74
11987;BME280;6053;51.382;6.768;2023-04-15T02:00:55;100384.84;;;13.92;66.17
11987;BME280;6053;51.382;6.768;2023-04-15T02:03:24;100377.16;;;14.04;65.95
11987;BME280;6053;51.382;6.768;2023-04-15T02:05:53;100384.31;;;13.95;65.69
11987;BME280;6053;51.382;6.768;2023-04-15T02:08:22;100392.28;;;13.91;61.83
11987;BME280;6053;51.382;6.768;2023-04-15T02:10:51;100383.25;;;13.74;63.66
11987;BME280;6053;51.382;6.768;2023-04-15T02:13:19;100381.09;;;13.81;66.53
11987;BME280;6053;51.382;6.768;2023-04-15T02:15:49;100389.69;;;13.80;65.51
11987;BME280;6053;51.382;6.768;2023-04-15T02:18:18;100387.59;;;13.92;61.39
11987;BME280;6053;51.382;6.768;2023-04-15T02:20:47;100386.09;;;13.79;65.12
11987;BME280;6053;51.382;6.768;2023-04-15T02:23:15;100387.06;;;13.68;62.50
11987;BME280;6053;51.382;6.768;2023-04-15T02:25:44;100392.75;;;13.78;60.58
11987;BME280;6053;51.382;6.768;2023-04-15T02:28:20;100399.94;;;13.52;66.64
11987;BME280;6053;51.382;6.768;2023-04-15T02:30:50;100397.19;;;13.52;67.23
11987;BME280;6053;51.382;6.768;2023-04-15T02:33:20;100405.91;;;13.66;66.44
11987;BME280;6053;51.382;6.768;2023-04-15T02:35:49;100401.59;;;13.75;66.50
11987;BME280;6053;51.382;6.768;2023-04-15T02:38:19;100410.22;;;13.52;67.20
11987;BME280;6053;51.382;6.768;2023-04-15T02:40:47;100404.81;;;13.67;65.40
11987;BME280;6053;51.382;6.768;2023-04-15T02:43:17;100409.75;;;13.38;62.98
11987;BME280;6053;51.382;6.768;2023-04-15T02:45:46;100412.28;;;13.39;65.71
11987;BME280;6053;51.382;6.768;2023-04-15T02:48:16;100412.88;;;13.41;67.49
11987;BME280;6053;51.382;6.768;2023-04-15T02:50:46;100418.63;;;13.62;61.80
11987;BME280;6053;51.382;6.768;2023-04-15T02:53:15;100411.75;;;13.42;66.20
11987;BME280;6053;51.382;6.768;2023-04-15T02:55:43;100411.44;;;13.39;67.95
11987;BME280;6053;51.382;6.768;2023-04-15T02:58:12;100411.03;;;13.52;67.55
11987;BME280;6053;51.382;6.768;2023-04-15T03:00:41;100420.53;;;13.61;66.99
11987;BME280;6053;51.382;6.768;2023-04-15T03:03:09;100421.97;;;13.64;66.69
11987;BME280;6053;51.382;6.768;2023-04-15T03:05:40;100423.59;;;13.60;67.40
11987;BME280;6053;51.382;6.768;2023-04-15T03:08:08;100430.47;;;13.57;66.00
11987;BME280;6053;51.382;6.768;2023-04-15T03:10:37;100430.47;;;13.57;66.28
11987;BME280;6053;51.382;6.768;2023-04-15T03:13:05;100430.44;;;13.52;64.23
11987;BME280;6053;51.382;6.768;2023-04-15T03:15:34;100428.06;;;13.39;67.90
11987;BME280;6053;51.382;6.768;2023-04-15T03:18:03;100432.34;;;13.25;66.47
11987;BME280;6053;51.382;6.768;2023-04-15T03:20:32;100430.03;;;13.21;66.12
11987;BME280;6053;51.382;6.768;2023-04-15T03:23:03;100425.72;;;13.31;68.43
11987;BME280;6053;51.382;6.768;2023-04-15T03:25:32;100438.00;;;13.35;68.05
11987;BME280;6053;51.382;6.768;2023-04-15T03:28:01;100433.09;;;13.42;67.97
11987;BME280;6053;51.382;6.768;2023-04-15T03:30:30;100433.13;;;13.47;67.83
11987;BME280;6053;51.382;6.768;2023-04-15T03:32:58;100429.50;;;13.41;67.69
11987;BME280;6053;51.382;6.768;2023-04-15T03:35:27;100433.97;;;13.48;67.84
11987;BME280;6053;51.382;6.768;2023-04-15T03:37:56;100437.84;;;13.47;64.82
11987;BME280;6053;51.382;6.768;2023-04-15T03:40:26;100432.97;;;13.32;67.89
11987;BME280;6053;51.382;6.768;2023-04-15T03:42:55;100447.47;;;13.39;68.10
11987;BME280;6053;51.382;6.768;2023-04-15T03:45:24;100448.22;;;13.34;68.18
11987;BME280;6053;51.382;6.768;2023-04-15T03:47:52;100440.50;;;13.36;67.95
11987;BME280;6053;51.382;6.768;2023-04-15T03:50:22;100447.13;;;13.35;67.33
11987;BME280;6053;51.382;6.768;2023-04-15T03:52:50;100446.56;;;13.33;68.31
11987;BME280;6053;51.382;6.768;2023-04-15T03:55:18;100457.94;;;13.15;65.73
11987;BME280;6053;51.382;6.768;2023-04-15T03:57:48;100450.09;;;13.29;68.17
11987;BME280;6053;51.382;6.768;2023-04-15T04:00:17;100444.81;;;13.27;68.10
11987;BME280;6053;51.382;6.768;2023-04-15T04:02:45;100459.50;;;13.11;68.85
11987;BME280;6053;51.382;6.768;2023-04-15T04:05:14;100457.66;;;12.94;69.62
11987;BME280;6053;51.382;6.768;2023-04-15T04:07:42;100462.28;;;13.11;69.01
11987;BME280;6053;51.382;6.768;2023-04-15T04:10:10;100459.47;;;13.06;67.23
11987;BME280;6053;51.382;6.768;2023-04-15T04:12:39;100470.25;;;13.07;67.66
11987;BME280;6053;51.382;6.768;2023-04-15T04:15:10;100481.50;;;12.62;66.24
11987;BME280;6053;51.382;6.768;2023-04-15T04:17:38;100479.41;;;12.52;66.58
11987;BME280;6053;51.382;6.768;2023-04-15T04:20:08;100480.06;;;12.25;70.53
11987;BME280;6053;51.382;6.768;2023-04-15T04:22:37;100479.13;;;12.20;67.47
11987;BME280;6053;51.382;6.768;2023-04-15T04:25:07;100473.78;;;12.64;70.30
11987;BME280;6053;51.382;6.768;2023-04-15T04:27:37;100478.19;;;12.98;69.63
11987;BME280;6053;51.382;6.768;2023-04-15T04:30:08;100476.47;;;12.76;68.21
11987;BME280;6053;51.382;6.768;2023-04-15T04:32:36;100481.84;;;12.65;70.60
11987;BME280;6053;51.382;6.768;2023-04-15T04:35:05;100477.56;;;12.74;70.57
11987;BME280;6053;51.382;6.768;2023-04-15T04:37:34;100490.16;;;13.04;68.52
11987;BME280;6053;51.382;6.768;2023-04-15T04:40:03;100489.47;;;12.58;70.06
11987;BME280;6053;51.382;6.768;2023-04-15T04:42:32;100496.66;;;12.93;65.99
11987;BME280;6053;51.382;6.768;2023-04-15T04:45:00;100497.94;;;12.35;72.05
11987;BME280;6053;51.382;6.768;2023-04-15T04:47:30;100495.34;;;12.62;71.80
11987;BME280;6053;51.382;6.768;2023-04-15T04:49:58;100499.09;;;12.39;72.13
11987;BME280;6053;51.382;6.768;2023-04-15T04:52:26;100499.63;;;12.07;68.86
11987;BME280;6053;51.382;6.768;2023-04-15T04:54:55;100494.56;;;12.16;71.25
11987;BME280;6053;51.382;6.768;2023-04-15T04:57:23;100507.22;;;11.31;73.56
11987;BME280;6053;51.382;6.768;2023-04-15T04:59:51;100504.69;;;11.70;74.83
11987;BME280;6053;51.382;6.768;2023-04-15T05:02:20;100516.56;;;11.94;69.98
11987;BME280;6053;51.382;6.768;2023-04-15T05:04:50;100512.34;;;11.79;72.10
11987;BME280;6053;51.382;6.768;2023-04-15T05:07:20;100520.47;;;12.43;72.34
11987;BME280;6053;51.382;6.768;2023-04-15T05:09:48;100520.31;;;11.76;75.04
11987;BME280;6053;51.382;6.768;2023-04-15T05:12:17;100524.00;;;11.93;74.09
11987;BME280;6053;51.382;6.768;2023-04-15T05:14:45;100526.44;;;11.38;72.69
11987;BME280;6053;51.382;6.768;2023-04-15T05:17:14;100532.53;;;11.51;77.35
11987;BME280;6053;51.382;6.768;2023-04-15T05:19:42;100524.84;;;11.94;74.18
11987;BME280;6053;51.382;6.768;2023-04-15T05:22:11;100532.47;;;11.63;76.69
11987;BME280;6053;51.382;6.768;2023-04-15T05:24:40;100536.72;;;11.54;73.73
11987;BME280;6053;51.382;6.768;2023-04-15T05:27:08;100531.59;;;12.15;73.63
11987;BME280;6053;51.382;6.768;2023-04-15T05:29:37;100533.91;;;12.52;69.10
11987;BME280;6053;51.382;6.768;2023-04-15T05:32:06;100545.16;;;12.16;72.16
11987;BME280;6053;51.382;6.768;2023-04-15T05:34:34;100547.16;;;12.83;67.71
11987;BME280;6053;51.382;6.768;2023-04-15T05:37:03;100548.25;;;12.99;67.29
11987;BME280;6053;51.382;6.768;2023-04-15T05:39:33;100545.19;;;13.17;63.90
11987;BME280;6053;51.382;6.768;2023-04-15T05:42:01;100547.16;;;12.66;68.16
11987;BME280;6053;51.382;6.768;2023-04-15T05:44:29;100546.56;;;13.54;65.80
11987;BME280;6053;51.382;6.768;2023-04-15T05:46:58;100555.09;;;14.72;61.22
11987;BME280;6053;51.382;6.768;2023-04-15T05:49:26;100565.41;;;14.77;58.51
11987;BME280;6053;51.382;6.768;2023-04-15T05:51:55;100565.41;;;14.50;58.01
11987;BME280;6053;51.382;6.768;2023-04-15T05:54:23;100578.97;;;13.31;62.00
11987;BME280;6053;51.382;6.768;2023-04-15T05:56:55;100573.16;;;13.72;64.05
11987;BME280;6053;51.382;6.768;2023-04-15T05:59:24;100573.69;;;14.45;58.89
11987;BME280;6053;51.382;6.768;2023-04-15T06:01:53;100583.41;;;14.69;59.85
11987;BME280;6053;51.382;6.768;2023-04-15T06:04:21;100575.47;;;14.83;59.02
11987;BME280;6053;51.382;6.768;2023-04-15T06:06:50;100592.13;;;14.29;58.11
11987;BME280;6053;51.382;6.768;2023-04-15T06:09:18;100592.28;;;13.95;60.21
11987;BME280;6053;51.382;6.768;2023-04-15T06:11:48;100594.72;;;12.80;67.65
11987;BME280;6053;51.382;6.768;2023-04-15T06:14:18;100598.47;;;12.12;72.82
11987;BME280;6053;51.382;6.768;2023-04-15T06:16:47;100606.69;;;12.23;70.13
11987;BME280;6053;51.382;6.768;2023-04-15T06:19:15;100604.63;;;13.10;67.28
11987;BME280;6053;51.382;6.768;2023-04-15T06:21:44;100614.78;;;13.04;67.91
11987;BME280;6053;51.382;6.768;2023-04-15T06:24:13;100615.19;;;14.34;62.85
11987;BME280;6053;51.382;6.768;2023-04-15T06:26:41;100620.13;;;14.27;61.78
11987;BME280;6053;51.382;6.768;2023-04-15T06:29:09;100618.16;;;14.77;59.89
11987;BME280;6053;51.382;6.768;2023-04-15T06:31:39;100617.78;;;14.68;60.62
11987;BME280;6053;51.382;6.768;2023-04-15T06:34:07;100621.53;;;14.30;62.19
11987;BME280;6053;51.382;6.768;2023-04-15T06:36:37;100626.34;;;14.12;61.40
11987;BME280;6053;51.382;6.768;2023-04-15T06:39:05;100625.50;;;13.51;65.44
11987;BME280;6053;51.382;6.768;2023-04-15T06:41:33;100637.78;;;12.88;68.39
11987;BME280;6053;51.382;6.768;2023-04-15T06:44:02;100635.19;;;12.98;67.22
11987;BME280;6053;51.382;6.768;2023-04-15T06:46:30;100633.63;;;14.19;64.54
11987;BME280;6053;51.382;6.768;2023-04-15T06:49:00;100635.09;;;14.26;62.82
11987;BME280;6053;51.382;6.768;2023-04-15T06:51:29;100642.78;;;13.97;64.05
11987;BME280;6053;51.382;6.768;2023-04-15T06:53:58;100640.38;;;12.78;69.00
11987;BME280;6053;51.382;6.768;2023-04-15T06:56:27;100638.44;;;13.84;65.30
11987;BME280;6053;51.382;6.768;2023-04-15T06:58:55;100652.00;;;12.80;68.55
11987;BME280;6053;51.382;6.768;2023-04-15T07:01:23;100648.03;;;13.55;66.84
11987;BME280;6053;51.382;6.768;2023-04-15T07:03:52;100653.72;;;13.65;66.41
11987;BME280;6053;51.382;6.768;2023-04-15T07:06:21;100662.38;;;13.68;65.30
11987;BME280;6053;51.382;6.768;2023-04-15T07:08:50;100659.09;;;13.21;68.04
11987;BME280;6053;51.382;6.768;2023-04-15T07:11:19;100664.28;;;13.01;68.74
11987;BME280;6053;51.382;6.768;2023-04-15T07:13:48;100661.88;;;14.15;64.29
11987;BME280;6053;51.382;6.768;2023-04-15T07:16:16;100669.63;;;13.36;67.81
11987;BME280;6053;51.382;6.768;2023-04-15T07:18:45;100676.16;;;12.84;68.48
11987;BME280;6053;51.382;6.768;2023-04-15T07:21:14;100677.50;;;11.84;73.13
11987;BME280;6053;51.382;6.768;2023-04-15T07:23:43;100675.38;;;12.55;70.18
11987;BME280;6053;51.382;6.768;2023-04-15T07:26:11;100684.66;;;11.97;71.55
11987;BME280;6053;51.382;6.768;2023-04-15T07:28:40;100683.00;;;12.93;69.47
11987;BME280;6053;51.382;6.768;2023-04-15T07:31:08;100683.84;;;13.61;62.19
11987;BME280;6053;51.382;6.768;2023-04-15T07:33:37;100689.34;;;12.94;65.84
11987;BME280;6053;51.382;6.768;2023-04-15T07:36:05;100687.81;;;12.69;66.94
11987;BME280;6053;51.382;6.768;2023-04-15T07:38:34;100690.19;;;13.40;64.77
11987;BME280;6053;51.382;6.768;2023-04-15T07:41:04;100694.28;;;14.32;62.57
11987;BME280;6053;51.382;6.768;2023-04-15T07:43:32;100701.94;;;13.47;63.28
11987;BME280;6053;51.382;6.768;2023-04-15T07:46:01;100704.31;;;13.10;64.83
11987;BME280;6053;51.382;6.768;2023-04-15T07:48:29;100702.78;;;12.16;70.34
11987;BME280;6053;51.382;6.768;2023-04-15T07:50:58;100702.50;;;13.66;62.89
11987;BME280;6053;51.382;6.768;2023-04-15T07:53:27;100701.22;;;13.23;66.08
11987;BME280;6053;51.382;6.768;2023-04-15T07:55:55;100707.88;;;11.96;68.13
11987;BME280;6053;51.382;6.768;2023-04-15T07:58:24;100707.13;;;13.27;65.58
11987;BME280;6053;51.382;6.768;2023-04-15T08:00:53;100704.91;;;12.95;66.35
11987;BME280;6053;51.382;6.768;2023-04-15T08:03:22;100713.91;;;13.02;67.03
11987;BME280;6053;51.382;6.768;2023-04-15T08:05:50;100726.47;;;13.10;66.04
11987;BME280;6053;51.382;6.768;2023-04-15T08:08:18;100715.63;;;12.91;67.61
11987;BME280;6053;51.382;6.768;2023-04-15T08:10:47;100709.97;;;12.29;68.42
11987;BME280;6053;51.382;6.768;2023-04-15T08:13:18;100719.19;;;12.46;68.91
11987;BME280;6053;51.382;6.768;2023-04-15T08:16:16;100724.78;;;13.37;65.59
11987;BME280;6053;51.382;6.768;2023-04-15T08:18:46;100726.47;;;12.24;67.22
11987;BME280;6053;51.382;6.768;2023-04-15T08:21:14;100726.03;;;12.44;70.38
11987;BME280;6053;51.382;6.768;2023-04-15T08:23:44;100725.78;;;13.82;62.25
11987;BME280;6053;51.382;6.768;2023-04-15T08:26:13;100732.53;;;13.24;63.36
11987;BME280;6053;51.382;6.768;2023-04-15T08:28:43;100729.38;;;12.86;64.43
11987;BME280;6053;51.382;6.768;2023-04-15T08:31:11;100739.22;;;13.39;62.68
11987;BME280;6053;51.382;6.768;2023-04-15T08:33:42;100734.50;;;13.74;60.83
11987;BME280;6053;51.382;6.768;2023-04-15T08:36:10;100735.84;;;12.35;64.08
11987;BME280;6053;51.382;6.768;2023-04-15T08:38:39;100750.13;;;13.29;62.32
11987;BME280;6053;51.382;6.768;2023-04-15T08:41:18;100742.56;;;12.96;62.55
11987;BME280;6053;51.382;6.768;2023-04-15T08:43:52;100741.16;;;13.10;62.43
11987;BME280;6053;51.382;6.768;2023-04-15T08:46:21;100741.63;;;12.62;66.13
11987;BME280;6053;51.382;6.768;2023-04-15T08:48:51;100753.41;;;13.77;62.22
11987;BME280;6053;51.382;6.768;2023-04-15T08:51:24;100750.81;;;13.36;61.00
11987;BME280;6053;51.382;6.768;2023-04-15T08:53:53;100752.38;;;14.00;62.72
11987;BME280;6053;51.382;6.768;2023-04-15T08:56:24;100753.84;;;14.46;59.70
11987;BME280;6053;51.382;6.768;2023-04-15T08:58:54;100751.03;;;14.24;59.63
11987;BME280;6053;51.382;6.768;2023-04-15T09:01:22;100759.22;;;14.14;60.34
11987;BME280;6053;51.382;6.768;2023-04-15T09:03:52;100759.22;;;14.14;63.86
11987;BME280;6053;51.382;6.768;2023-04-15T09:06:22;100768.91;;;13.27;60.61
11987;BME280;6053;51.382;6.768;2023-04-15T09:08:51;100760.25;;;12.78;65.04
11987;BME280;6053;51.382;6.768;2023-04-15T09:11:21;100766.59;;;13.70;60.51
11987;BME280;6053;51.382;6.768;2023-04-15T09:13:50;100765.66;;;14.58;59.66
11987;BME280;6053;51.382;6.768;2023-04-15T09:16:18;100770.22;;;14.48;57.74
11987;BME280;6053;51.382;6.768;2023-04-15T09:18:46;100758.59;;;15.81;55.46
11987;BME280;6053;51.382;6.768;2023-04-15T09:21:17;100765.41;;;15.36;54.72
11987;BME280;6053;51.382;6.768;2023-04-15T09:23:55;100766.72;;;15.01;55.75
11987;BME280;6053;51.382;6.768;2023-04-15T09:26:32;100765.59;;;13.59;59.35
11987;BME280;6053;51.382;6.768;2023-04-15T09:29:04;100772.47;;;13.11;60.86
11987;BME280;6053;51.382;6.768;2023-04-15T09:31:34;100788.94;;;13.46;62.87
11987;BME280;6053;51.382;6.768;2023-04-15T09:34:03;100779.16;;;13.27;63.05
11987;BME280;6053;51.382;6.768;2023-04-15T09:36:41;100783.13;;;13.31;63.25
11987;BME280;6053;51.382;6.768;2023-04-15T09:39:19;100793.84;;;14.11;60.06
11987;BME280;6053;51.382;6.768;2023-04-15T09:42:03;100792.00;;;14.78;62.30
11987;BME280;6053;51.382;6.768;2023-04-15T09:44:31;100802.31;;;14.38;60.11
11987;BME280;6053;51.382;6.768;2023-04-15T09:46:59;100809.91;;;14.87;59.35
11987;BME280;6053;51.382;6.768;2023-04-15T09:49:28;100799.09;;;15.40;55.48
11987;BME280;6053;51.382;6.768;2023-04-15T09:52:01;100808.56;;;14.29;58.73
11987;BME280;6053;51.382;6.768;2023-04-15T09:54:34;100809.44;;;13.62;62.31
11987;BME280;6053;51.382;6.768;2023-04-15T09:57:06;100817.47;;;13.30;65.03
11987;BME280;6053;51.382;6.768;2023-04-15T09:59:36;100810.63;;;13.66;64.20
11987;BME280;6053;51.382;6.768;2023-04-15T10:02:05;100807.13;;;13.25;66.93
11987;BME280;6053;51.382;6.768;2023-04-15T10:04:35;100813.63;;;13.81;64.46
11987;BME280;6053;51.382;6.768;2023-04-15T10:07:09;100822.44;;;14.90;60.82
11987;BME280;6053;51.382;6.768;2023-04-15T10:09:38;100821.28;;;13.74;64.06
11987;BME280;6053;51.382;6.768;2023-04-15T10:12:08;100823.31;;;13.96;63.69
11987;BME280;6053;51.382;6.768;2023-04-15T10:14:37;100834.91;;;13.76;65.29
11987;BME280;6053;51.382;6.768;2023-04-15T10:17:10;100836.66;;;13.48;64.43
11987;BME280;6053;51.382;6.768;2023-04-15T10:19:38;100844.31;;;13.29;65.06
11987;BME280;6053;51.382;6.768;2023-04-15T10:22:08;100845.44;;;13.16;66.60
11987;BME280;6053;51.382;6.768;2023-04-15T10:24:38;100840.19;;;13.03;67.60
11987;BME280;6053;51.382;6.768;2023-04-15T10:27:07;100841.13;;;14.00;65.65
11987;BME280;6053;51.382;6.768;2023-04-15T10:29:37;100837.19;;;13.05;68.41
11987;BME280;6053;51.382;6.768;2023-04-15T10:32:06;100835.50;;;12.52;72.28
11987;BME280;6053;51.382;6.768;2023-04-15T10:34:35;100841.06;;;13.20;67.22
11987;BME280;6053;51.382;6.768;2023-04-15T10:37:04;100842.28;;;13.70;66.37
11987;BME280;6053;51.382;6.768;2023-04-15T10:42:11;100857.06;;;13.59;65.88
11987;BME280;6053;51.382;6.768;2023-04-15T10:44:42;100855.97;;;13.03;69.42
11987;BME280;6053;51.382;6.768;2023-04-15T10:47:12;100843.41;;;13.12;71.28
11987;BME280;6053;51.382;6.768;2023-04-15T10:49:47;100854.50;;;13.40;68.57
11987;BME280;6053;51.382;6.768;2023-04-15T10:52:21;100864.53;;;13.01;71.05
11987;BME280;6053;51.382;6.768;2023-04-15T10:54:50;100856.69;;;12.58;75.57
11987;BME280;6053;51.382;6.768;2023-04-15T10:57:34;100861.56;;;12.79;71.31
11987;BME280;6053;51.382;6.768;2023-04-15T11:00:11;100868.56;;;12.70;74.78
11987;BME280;6053;51.382;6.768;2023-04-15T11:02:42;100865.47;;;12.43;73.23
11987;BME280;6053;51.382;6.768;2023-04-15T11:05:12;100861.09;;;12.70;71.29
11987;BME280;6053;51.382;6.768;2023-04-15T11:07:48;100862.69;;;13.07;70.52
11987;BME280;6053;51.382;6.768;2023-04-15T11:10:51;100854.22;;;13.25;70.95
11987;BME280;6053;51.382;6.768;2023-04-15T11:13:28;100867.53;;;13.40;67.97
11987;BME280;6053;51.382;6.768;2023-04-15T11:16:00;100877.78;;;13.39;69.27
11987;BME280;6053;51.382;6.768;2023-04-15T11:18:32;100868.00;;;13.08;69.97
11987;BME280;6053;51.382;6.768;2023-04-15T11:21:03;100871.69;;;13.88;66.87
11987;BME280;6053;51.382;6.768;2023-04-15T11:23:39;100873.59;;;12.73;71.74
11987;BME280;6053;51.382;6.768;2023-04-15T11:26:10;100883.88;;;13.13;71.87
11987;BME280;6053;51.382;6.768;2023-04-15T11:28:42;100881.78;;;13.20;71.37
11987;BME280;6053;51.382;6.768;2023-04-15T11:31:12;100884.28;;;13.33;71.24
11987;BME280;6053;51.382;6.768;2023-04-15T11:33:45;100885.06;;;14.08;65.87
11987;BME280;6053;51.382;6.768;2023-04-15T11:36:14;100895.72;;;14.50;65.73
11987;BME280;6053;51.382;6.768;2023-04-15T11:38:43;100888.50;;;12.95;72.84
11987;BME280;6053;51.382;6.768;2023-04-15T11:41:13;100892.31;;;13.47;68.44
11987;BME280;6053;51.382;6.768;2023-04-15T11:43:43;100905.56;;;13.73;68.26
11987;BME280;6053;51.382;6.768;2023-04-15T11:46:12;100902.91;;;12.97;70.96
11987;BME280;6053;51.382;6.768;2023-04-15T11:48:43;100916.81;;;12.74;70.06
11987;BME280;6053;51.382;6.768;2023-04-15T11:51:13;100904.31;;;12.71;69.54
11987;BME280;6053;51.382;6.768;2023-04-15T11:53:42;100894.88;;;13.36;70.30
11987;BME280;6053;51.382;6.768;2023-04-15T11:56:17;100899.44;;;12.90;69.07
11987;BME280;6053;51.382;6.768;2023-04-15T11:58:49;100901.53;;;12.71;71.73
11987;BME280;6053;51.382;6.768;2023-04-15T12:01:19;100909.00;;;12.71;70.78
11987;BME280;6053;51.382;6.768;2023-04-15T12:03:48;100916.56;;;12.76;72.30
11987;BME280;6053;51.382;6.768;2023-04-15T12:06:18;100921.69;;;13.07;69.77
11987;BME280;6053;51.382;6.768;2023-04-15T12:09:11;100914.09;;;13.26;67.79
11987;BME280;6053;51.382;6.768;2023-04-15T12:11:50;100925.13;;;13.66;68.16
11987;BME280;6053;51.382;6.768;2023-04-15T12:14:24;100933.06;;;12.59;72.59
11987;BME280;6053;51.382;6.768;2023-04-15T12:16:57;100934.28;;;12.63;72.45
11987;BME280;6053;51.382;6.768;2023-04-15T12:19:28;100921.78;;;13.98;72.43
11987;BME280;6053;51.382;6.768;2023-04-15T12:21:59;100934.22;;;13.79;68.30
11987;BME280;6053;51.382;6.768;2023-04-15T12:24:31;100933.38;;;13.50;70.30
11987;BME280;6053;51.382;6.768;2023-04-15T12:27:02;100938.81;;;12.92;72.24
11987;BME280;6053;51.382;6.768;2023-04-15T12:29:35;100945.69;;;12.43;74.65
11987;BME280;6053;51.382;6.768;2023-04-15T12:32:06;100944.00;;;12.89;73.00
11987;BME280;6053;51.382;6.768;2023-04-15T12:34:37;100951.56;;;12.93;73.97
11987;BME280;6053;51.382;6.768;2023-04-15T12:37:07;100963.34;;;13.12;70.51
11987;BME280;6053;51.382;6.768;2023-04-15T12:39:38;100956.41;;;12.27;71.85
11987;BME280;6053;51.382;6.768;2023-04-15T12:42:07;100956.16;;;13.80;74.10
11987;BME280;6053;51.382;6.768;2023-04-15T12:44:38;100971.41;;;14.11;70.94
11987;BME280;6053;51.382;6.768;2023-04-15T12:47:08;100960.13;;;13.56;69.49
11987;BME280;6053;51.382;6.768;2023-04-15T12:49:37;100975.69;;;12.81;72.26
11987;BME280;6053;51.382;6.768;2023-04-15T12:52:07;100979.97;;;12.18;75.32
11987;BME280;6053;51.382;6.768;2023-04-15T12:54:35;100985.06;;;12.45;76.17
11987;BME280;6053;51.382;6.768;2023-04-15T12:57:03;100987.69;;;12.98;76.60
11987;BME280;6053;51.382;6.768;2023-04-15T12:59:33;100995.66;;;13.59;69.85
11987;BME280;6053;51.382;6.768;2023-04-15T13:02:03;100992.69;;;13.49;68.81
11987;BME280;6053;51.382;6.768;2023-04-15T13:04:32;100990.72;;;13.89;69.95
11987;BME280;6053;51.382;6.768;2023-04-15T13:07:00;100999.63;;;14.54;69.61
11987;BME280;6053;51.382;6.768;2023-04-15T13:09:29;101003.94;;;13.30;68.92
11987;BME280;6053;51.382;6.768;2023-04-15T13:11:57;101002.97;;;13.13;69.61
11987;BME280;6053;51.382;6.768;2023-04-15T13:14:25;101003.00;;;12.78;76.31
11987;BME280;6053;51.382;6.768;2023-04-15T13:16:54;101010.78;;;12.57;75.63